createdAt,value
2022-11-08T00:00:16.212Z,202.38
2022-11-08T00:02:45.237Z,188.32
2022-11-08T00:05:31.723Z,196.18
2022-11-08T00:08:17.693Z,169.68
2022-11-08T00:11:03.506Z,176.68
2022-11-08T00:13:50.355Z,199.63
2022-11-08T00:16:22.887Z,275.92
2022-11-08T00:18:51.560Z,254.02
2022-11-08T00:21:20.028Z,193.55
2022-11-08T00:23:49.378Z,167.05
2022-11-08T00:26:17.735Z,193.57
2022-11-08T00:28:50.059Z,196.57
2022-11-08T00:31:20.975Z,193.20
2022-11-08T00:33:49.428Z,195.55
2022-11-08T00:36:20.787Z,247.65
2022-11-08T00:38:51.540Z,169.88
2022-11-08T00:41:20.470Z,179.88
2022-11-08T00:43:50.654Z,162.07
2022-11-08T00:46:19.529Z,155.70
2022-11-08T00:48:48.580Z,139.93
2022-11-08T00:51:20.286Z,173.95
2022-11-08T00:53:48.663Z,220.50
2022-11-08T00:56:17.234Z,171.77
2022-11-08T00:58:45.810Z,155.90
2022-11-08T01:01:25.378Z,197.10
2022-11-08T01:03:54.099Z,177.13
2022-11-08T01:06:24.658Z,130.23
2022-11-08T01:08:53.581Z,197.82
2022-11-08T01:11:24.036Z,145.75
2022-11-08T01:13:53.965Z,159.32
2022-11-08T01:16:26.580Z,140.27
2022-11-08T01:18:56.529Z,185.35
2022-11-08T01:21:30.717Z,152.93
2022-11-08T01:23:59.237Z,168.07
2022-11-08T01:26:29.943Z,145.77
2022-11-08T01:28:59.827Z,168.77
2022-11-08T01:31:33.174Z,155.93
2022-11-08T01:34:03.299Z,152.00
2022-11-08T01:36:35.085Z,174.60
2022-11-08T01:39:03.866Z,149.05
2022-11-08T01:41:32.535Z,151.43
2022-11-08T01:44:04.619Z,134.70
2022-11-08T01:46:46.296Z,159.88
2022-11-08T01:49:41.358Z,152.40
2022-11-08T01:52:29.213Z,249.68
2022-11-08T01:55:04.224Z,206.48
2022-11-08T01:57:38.560Z,210.88
2022-11-08T02:00:10.262Z,323.08
2022-11-08T02:02:42.772Z,207.60
2022-11-08T02:05:26.044Z,144.82
2022-11-08T02:07:58.196Z,184.60
2022-11-08T02:12:59.671Z,151.00
2022-11-08T02:15:30.918Z,178.90
2022-11-08T02:18:01.436Z,167.27
2022-11-08T02:20:29.734Z,254.27
2022-11-08T02:23:03.201Z,182.07
2022-11-08T02:25:32.913Z,228.07
2022-11-08T02:28:03.223Z,253.90
2022-11-08T02:30:35.015Z,206.38
2022-11-08T02:33:16.203Z,283.13
2022-11-08T02:35:47.545Z,273.47
2022-11-08T02:38:16.536Z,403.25
2022-11-08T02:40:51.651Z,411.15
2022-11-08T02:43:20.342Z,371.80
2022-11-08T02:45:49.189Z,274.25
2022-11-08T02:48:18.338Z,313.40
2022-11-08T02:50:47.035Z,414.02
2022-11-08T02:53:16.493Z,517.78
2022-11-08T02:55:45.240Z,257.50
2022-11-08T02:58:15.594Z,449.77
2022-11-08T03:00:44.285Z,289.10
2022-11-08T03:03:12.853Z,434.55
2022-11-08T03:05:42.957Z,274.30
2022-11-08T03:08:11.463Z,192.07
2022-11-08T03:10:39.929Z,256.83
2022-11-08T03:13:08.840Z,321.42
2022-11-08T03:15:38.509Z,240.73
2022-11-08T03:18:07.660Z,240.95
2022-11-08T03:20:36.378Z,321.30
2022-11-08T03:23:06.529Z,284.63
2022-11-08T03:25:35.868Z,259.38
2022-11-08T03:28:06.329Z,204.93
2022-11-08T03:30:35.153Z,226.13
2022-11-08T03:33:06.366Z,225.65
2022-11-08T03:35:36.643Z,152.77
2022-11-08T03:38:05.459Z,164.82
2022-11-08T03:40:33.796Z,233.50
2022-11-08T03:43:02.306Z,407.58
2022-11-08T03:45:31.128Z,171.23
2022-11-08T03:47:59.855Z,154.85
2022-11-08T03:50:31.657Z,277.23
2022-11-08T03:52:59.767Z,402.48
2022-11-08T03:55:29.475Z,188.23
2022-11-08T03:57:57.869Z,270.45
2022-11-08T04:00:28.992Z,212.55
2022-11-08T04:03:03.090Z,218.30
2022-11-08T04:05:33.755Z,425.73
2022-11-08T04:08:02.483Z,191.70
2022-11-08T04:10:33.154Z,234.95
2022-11-08T04:13:19.743Z,300.85
2022-11-08T04:15:53.576Z,148.65
2022-11-08T04:18:39.316Z,177.70
2022-11-08T04:21:23.330Z,182.85
2022-11-08T04:23:53.778Z,187.15
2022-11-08T04:26:23.178Z,168.88
2022-11-08T04:28:51.628Z,304.80
2022-11-08T04:31:21.993Z,273.02
2022-11-08T04:33:50.531Z,219.73
2022-11-08T04:36:20.829Z,218.02
2022-11-08T04:38:49.823Z,222.82
2022-11-08T04:41:20.416Z,365.83
2022-11-08T04:43:51.561Z,281.10
2022-11-08T04:46:22.731Z,273.65
2022-11-08T04:48:53.294Z,281.07
2022-11-08T04:51:28.223Z,213.23
2022-11-08T04:53:58.211Z,171.68
2022-11-08T04:56:28.677Z,215.07
2022-11-08T04:58:58.337Z,228.25
2022-11-08T05:01:28.722Z,231.68
2022-11-08T05:03:58.265Z,295.48
2022-11-08T05:06:32.537Z,258.92
2022-11-08T05:09:02.754Z,235.00
2022-11-08T05:11:32.023Z,196.20
2022-11-08T05:14:00.370Z,279.88
2022-11-08T05:16:31.926Z,248.98
2022-11-08T05:19:02.203Z,252.07
2022-11-08T05:21:51.831Z,194.10
2022-11-08T05:24:20.778Z,242.68
2022-11-08T05:26:50.440Z,238.77
2022-11-08T05:29:18.814Z,269.40
2022-11-08T05:31:48.620Z,437.75
2022-11-08T05:34:18.234Z,261.48
2022-11-08T05:36:47.942Z,351.23
2022-11-08T05:39:16.240Z,198.18
2022-11-08T05:41:44.758Z,176.68
2022-11-08T05:44:14.981Z,207.18
2022-11-08T05:46:43.296Z,230.07
2022-11-08T05:49:11.681Z,208.52
2022-11-08T05:51:41.879Z,184.52
2022-11-08T05:54:13.127Z,229.75
2022-11-08T05:56:43.710Z,194.05
2022-11-08T05:59:19.630Z,340.33
2022-11-08T06:01:50.975Z,186.25
2022-11-08T06:04:29.026Z,225.27
2022-11-08T06:07:00.241Z,278.23
2022-11-08T06:09:32.397Z,411.63
2022-11-08T06:12:02.308Z,272.63
2022-11-08T06:14:31.893Z,445.70
2022-11-08T06:17:07.926Z,200.57
2022-11-08T06:19:41.891Z,264.55
2022-11-08T06:22:10.575Z,222.85
2022-11-08T06:24:46.028Z,199.35
2022-11-08T06:27:15.885Z,192.88
2022-11-08T06:29:44.897Z,297.52
2022-11-08T06:32:14.985Z,294.52
2022-11-08T06:34:50.260Z,229.73
2022-11-08T06:37:21.864Z,288.50
2022-11-08T06:39:54.784Z,231.98
2022-11-08T06:42:26.868Z,306.60
2022-11-08T06:44:58.425Z,263.65
2022-11-08T06:47:32.321Z,321.98
2022-11-08T06:50:00.635Z,246.07
2022-11-08T06:52:29.636Z,202.93
2022-11-08T06:54:59.660Z,264.73
2022-11-08T06:57:28.263Z,223.65
2022-11-08T07:00:01.924Z,396.75
2022-11-08T07:02:33.327Z,198.40
2022-11-08T07:05:02.019Z,223.15
2022-11-08T07:07:31.092Z,189.70
2022-11-08T07:10:03.976Z,258.83
2022-11-08T07:12:32.846Z,249.38
2022-11-08T07:15:01.359Z,193.77
2022-11-08T07:17:34.315Z,178.30
2022-11-08T07:20:08.124Z,150.23
2022-11-08T07:22:52.668Z,160.98
2022-11-08T07:25:29.729Z,185.63
2022-11-08T07:27:59.852Z,220.82
2022-11-08T07:30:29.375Z,182.60
2022-11-08T07:32:58.508Z,228.15
2022-11-08T07:35:28.762Z,179.52
2022-11-08T07:37:59.302Z,169.05
2022-11-08T07:40:33.853Z,160.02
2022-11-08T07:45:42.517Z,201.18
2022-11-08T07:48:13.806Z,194.70
2022-11-08T07:50:44.523Z,237.68
2022-11-08T07:53:12.711Z,195.93
2022-11-08T07:55:43.362Z,216.02
2022-11-08T07:58:13.504Z,160.77
2022-11-08T08:00:44.354Z,145.60
2022-11-08T08:03:16.260Z,173.25
2022-11-08T08:05:46.794Z,167.68
2022-11-08T08:08:15.091Z,161.23
2022-11-08T08:10:54.491Z,172.27
2022-11-08T08:13:23.352Z,159.27
2022-11-08T08:15:52.401Z,176.50
2022-11-08T08:18:24.795Z,159.48
2022-11-08T08:23:26.354Z,154.60
2022-11-08T08:25:56.281Z,146.73
2022-11-08T08:28:26.746Z,138.73
2022-11-08T08:30:58.047Z,142.95
2022-11-08T08:33:28.854Z,149.40
2022-11-08T08:36:01.313Z,160.98
2022-11-08T08:38:31.818Z,140.55
2022-11-08T08:41:06.198Z,121.95
2022-11-08T08:43:39.443Z,128.07
2022-11-08T08:46:08.714Z,160.77
2022-11-08T08:48:39.132Z,144.48
2022-11-08T08:51:07.881Z,124.53
2022-11-08T08:53:36.234Z,117.10
2022-11-08T08:56:07.955Z,121.35
2022-11-08T08:58:40.562Z,119.13
2022-11-08T09:04:03.662Z,125.50
2022-11-08T09:06:32.078Z,123.00
2022-11-08T09:09:00.233Z,146.10
2022-11-08T09:11:36.464Z,130.15
2022-11-08T09:14:04.846Z,109.53
2022-11-08T09:16:33.462Z,108.78
2022-11-08T09:19:03.686Z,108.13
2022-11-08T09:21:33.533Z,99.25
2022-11-08T09:24:04.106Z,93.75
2022-11-08T09:26:33.869Z,91.05
2022-11-08T09:29:07.481Z,84.97
2022-11-08T09:31:38.409Z,74.72
2022-11-08T09:34:10.751Z,65.00
2022-11-08T09:36:46.444Z,75.75
2022-11-08T09:39:18.318Z,68.25
2022-11-08T09:42:09.984Z,72.78
2022-11-08T09:45:08.485Z,59.58
2022-11-08T09:47:41.595Z,64.53
2022-11-08T09:50:21.863Z,66.72
2022-11-08T09:52:56.149Z,70.18
2022-11-08T09:55:35.819Z,66.25
2022-11-08T09:58:22.955Z,60.13
2022-11-08T10:00:53.535Z,61.83
2022-11-08T10:03:25.118Z,63.15
2022-11-08T10:06:13.362Z,60.92
2022-11-08T10:08:50.902Z,63.97
2022-11-08T10:11:30.884Z,58.60
2022-11-08T10:14:24.902Z,60.67
2022-11-08T10:17:14.550Z,54.95
2022-11-08T10:20:08.463Z,56.20
2022-11-08T10:22:54.905Z,51.92
2022-11-08T10:25:34.301Z,53.83
2022-11-08T10:28:08.437Z,54.95
2022-11-08T10:30:46.217Z,55.25
2022-11-08T10:33:24.246Z,54.75
2022-11-08T10:36:02.156Z,65.43
2022-11-08T10:38:53.539Z,54.78
2022-11-08T10:41:30.297Z,48.67
2022-11-08T10:44:03.220Z,51.70
2022-11-08T10:46:44.344Z,53.30
2022-11-08T10:49:17.829Z,53.28
2022-11-08T10:51:47.326Z,66.97
2022-11-08T10:54:46.728Z,58.47
2022-11-08T10:57:21.801Z,53.80
2022-11-08T10:59:54.221Z,56.42
2022-11-08T11:02:35.315Z,57.92
2022-11-08T11:05:24.793Z,54.90
2022-11-08T11:08:04.490Z,59.47
2022-11-08T11:10:35.703Z,51.65
2022-11-08T11:13:07.773Z,53.47
2022-11-08T11:15:42.524Z,57.35
2022-11-08T11:18:29.728Z,53.53
2022-11-08T11:21:03.906Z,43.83
2022-11-08T11:23:46.671Z,47.63
2022-11-08T11:26:30.889Z,41.95
2022-11-08T11:29:22.841Z,42.80
2022-11-08T11:31:54.299Z,47.83
2022-11-08T11:34:39.317Z,46.78
2022-11-08T11:37:20.443Z,67.93
2022-11-08T11:40:02.421Z,41.97
2022-11-08T11:42:51.389Z,39.95
2022-11-08T11:45:22.795Z,39.70
2022-11-08T11:47:58.129Z,41.00
2022-11-08T11:50:38.636Z,37.78
2022-11-08T11:53:13.639Z,95.35
2022-11-08T11:55:53.811Z,73.03
2022-11-08T11:58:46.847Z,47.47
2022-11-08T12:01:24.344Z,45.70
2022-11-08T12:04:04.964Z,44.58
2022-11-08T12:06:49.702Z,76.18
2022-11-08T12:09:42.524Z,67.72
2022-11-08T12:12:24.544Z,41.10
2022-11-08T12:15:05.782Z,52.42
2022-11-08T12:17:51.733Z,41.85
2022-11-08T12:20:34.675Z,39.33
2022-11-08T12:23:25.929Z,39.20
2022-11-08T12:26:04.980Z,40.78
2022-11-08T12:28:53.714Z,40.45
2022-11-08T12:31:33.354Z,36.38
2022-11-08T12:34:16.508Z,39.50
2022-11-08T12:36:53.610Z,39.25
2022-11-08T12:39:35.907Z,42.55
2022-11-08T12:42:28.422Z,39.20
2022-11-08T12:45:24.326Z,45.38
2022-11-08T12:48:01.406Z,40.97
2022-11-08T12:50:38.499Z,46.05
2022-11-08T12:53:44.766Z,40.35
2022-11-08T12:56:23.239Z,43.58
2022-11-08T12:58:52.644Z,41.25
2022-11-08T13:01:23.694Z,45.33
2022-11-08T13:04:06.058Z,42.17
2022-11-08T13:06:44.441Z,40.63
2022-11-08T13:09:28.071Z,41.22
2022-11-08T13:12:08.176Z,43.53
2022-11-08T13:14:41.520Z,41.55
2022-11-08T13:17:26.660Z,42.83
2022-11-08T13:20:08.671Z,49.75
2022-11-08T13:22:44.347Z,43.33
2022-11-08T13:25:35.645Z,46.15
2022-11-08T13:28:35.308Z,47.72
2022-11-08T13:31:13.669Z,44.38
2022-11-08T13:33:51.142Z,44.47
2022-11-08T13:36:41.018Z,46.80
2022-11-08T13:39:34.337Z,46.40
2022-11-08T13:42:06.407Z,46.53
2022-11-08T13:45:06.445Z,47.85
2022-11-08T13:47:53.904Z,50.50
2022-11-08T13:50:50.135Z,51.90
2022-11-08T13:53:50.120Z,55.60
2022-11-08T13:56:47.957Z,50.72
2022-11-08T13:59:57.262Z,54.70
2022-11-08T14:02:42.928Z,53.08
2022-11-08T14:05:29.263Z,51.63
2022-11-08T14:08:16.047Z,47.55
2022-11-08T14:11:24.177Z,51.00
2022-11-08T14:14:31.194Z,52.33
2022-11-08T14:17:17.840Z,53.90
2022-11-08T14:19:49.539Z,56.00
2022-11-08T14:22:26.374Z,55.25
2022-11-08T14:25:09.073Z,55.95
2022-11-08T14:27:40.616Z,56.70
2022-11-08T14:32:45.528Z,58.15
2022-11-08T14:35:22.684Z,60.30
2022-11-08T14:37:51.506Z,63.47
2022-11-08T14:40:23.503Z,65.57
2022-11-08T14:45:30.361Z,66.13
2022-11-08T14:48:05.217Z,70.53
2022-11-08T14:50:36.231Z,70.60
2022-11-08T14:53:21.663Z,70.30
2022-11-08T14:55:57.501Z,75.10
2022-11-08T14:58:30.215Z,74.57
2022-11-08T15:01:03.845Z,73.00
2022-11-08T15:03:34.335Z,76.82
2022-11-08T15:06:12.518Z,79.75
2022-11-08T15:08:49.617Z,82.70
2022-11-08T15:11:30.508Z,78.55
2022-11-08T15:14:01.871Z,81.78
2022-11-08T15:16:43.128Z,86.85
2022-11-08T15:19:35.371Z,83.35
2022-11-08T15:22:28.107Z,83.60
2022-11-08T15:25:17.537Z,78.72
2022-11-08T15:27:49.729Z,75.07
2022-11-08T15:30:21.134Z,79.45
2022-11-08T15:32:51.640Z,78.38
2022-11-08T15:35:31.006Z,86.47
2022-11-08T15:38:07.101Z,84.25
2022-11-08T15:40:36.967Z,85.72
2022-11-08T15:43:05.937Z,75.15
2022-11-08T15:45:38.595Z,84.45
2022-11-08T15:48:22.677Z,83.70
2022-11-08T15:50:52.286Z,83.85
2022-11-08T15:53:29.355Z,81.70
2022-11-08T15:56:02.989Z,83.43
2022-11-08T15:58:39.859Z,88.30
2022-11-08T16:01:18.938Z,88.68
2022-11-08T16:03:48.697Z,92.03
2022-11-08T16:06:17.340Z,96.50
2022-11-08T16:08:47.466Z,94.95
2022-11-08T16:11:20.863Z,88.32
2022-11-08T16:13:51.678Z,93.30
2022-11-08T16:16:25.284Z,91.72
2022-11-08T16:18:53.960Z,99.15
2022-11-08T16:21:22.673Z,94.70
2022-11-08T16:23:54.060Z,104.32
2022-11-08T16:26:22.548Z,94.15
2022-11-08T16:28:55.234Z,98.60
2022-11-08T16:31:24.661Z,110.15
2022-11-08T16:33:56.285Z,119.63
2022-11-08T16:36:29.154Z,122.63
2022-11-08T16:39:02.781Z,120.07
2022-11-08T16:41:31.650Z,115.25
2022-11-08T16:44:00.334Z,118.38
2022-11-08T16:46:30.440Z,110.70
2022-11-08T16:49:02.346Z,112.30
2022-11-08T16:51:30.867Z,120.05
2022-11-08T16:54:05.553Z,121.55
2022-11-08T16:56:34.904Z,126.55
2022-11-08T16:59:04.406Z,111.55
2022-11-08T17:01:36.537Z,110.10
2022-11-08T17:04:07.516Z,111.38
2022-11-08T17:06:36.296Z,127.05
2022-11-08T17:09:07.561Z,119.60
2022-11-08T17:11:38.355Z,120.00
2022-11-08T17:14:07.200Z,114.13
2022-11-08T17:16:35.914Z,122.28
2022-11-08T17:19:05.982Z,121.68
2022-11-08T17:21:49.828Z,116.80
2022-11-08T17:24:21.894Z,123.80
2022-11-08T17:26:51.347Z,128.93
2022-11-08T17:29:20.061Z,132.23
2022-11-08T17:31:51.432Z,127.40
2022-11-08T17:34:22.190Z,128.93
2022-11-08T17:36:53.008Z,120.97
2022-11-08T17:39:23.089Z,117.22
2022-11-08T17:41:52.819Z,127.60
2022-11-08T17:44:21.454Z,126.05
2022-11-08T17:46:50.330Z,132.25
2022-11-08T17:49:19.669Z,130.23
2022-11-08T17:51:48.494Z,127.75
2022-11-08T17:54:18.946Z,142.70
2022-11-08T17:56:49.071Z,140.27
2022-11-08T17:59:17.968Z,141.13
2022-11-08T18:01:47.895Z,135.52
2022-11-08T18:04:17.562Z,127.97
2022-11-08T18:06:48.119Z,138.15
2022-11-08T18:09:16.852Z,134.20
2022-11-08T18:11:48.314Z,140.07
2022-11-08T18:14:28.043Z,139.55
2022-11-08T18:17:00.018Z,138.23
2022-11-08T18:19:30.849Z,134.75
2022-11-08T18:22:01.123Z,148.57
2022-11-08T18:24:30.092Z,135.50
2022-11-08T18:26:58.612Z,133.27
2022-11-08T18:29:32.100Z,141.00
2022-11-08T18:32:02.087Z,140.95
2022-11-08T18:34:34.344Z,136.82
2022-11-08T18:37:05.875Z,146.52
2022-11-08T18:39:35.882Z,140.82
2022-11-08T18:42:04.812Z,138.05
2022-11-08T18:44:38.162Z,136.25
2022-11-08T18:47:08.880Z,128.55
2022-11-08T18:49:38.924Z,127.50
2022-11-08T18:52:09.247Z,139.15
2022-11-08T18:54:38.417Z,132.80
2022-11-08T18:57:10.867Z,127.70
2022-11-08T18:59:44.942Z,126.78
2022-11-08T19:02:14.012Z,121.80
2022-11-08T19:04:42.708Z,121.70
2022-11-08T19:07:11.741Z,123.65
2022-11-08T19:09:47.720Z,124.25
2022-11-08T19:12:16.142Z,136.57
2022-11-08T19:14:48.911Z,123.65
2022-11-08T19:17:18.719Z,118.22
2022-11-08T19:19:48.692Z,107.13
2022-11-08T19:22:18.886Z,116.05
2022-11-08T19:24:48.169Z,114.13
2022-11-08T19:27:18.720Z,113.03
2022-11-08T19:29:48.622Z,103.88
2022-11-08T19:32:17.236Z,98.88
2022-11-08T19:34:47.148Z,106.78
2022-11-08T19:37:16.785Z,97.50
2022-11-08T19:39:45.674Z,112.18
2022-11-08T19:42:14.710Z,114.22
2022-11-08T19:44:43.878Z,120.10
2022-11-08T19:47:14.022Z,113.95
2022-11-08T19:49:43.441Z,117.93
2022-11-08T19:52:12.147Z,117.93
2022-11-08T19:54:40.653Z,125.32
2022-11-08T19:57:09.443Z,118.47
2022-11-08T19:59:38.153Z,124.35
2022-11-08T20:02:06.928Z,119.85
2022-11-08T20:04:38.263Z,122.30
2022-11-08T20:07:07.692Z,125.85
2022-11-08T20:09:39.592Z,141.90
2022-11-08T20:12:13.585Z,134.70
2022-11-08T20:14:50.246Z,124.35
2022-11-08T20:17:19.391Z,122.60
2022-11-08T20:19:51.852Z,112.93
2022-11-08T20:22:22.399Z,119.22
2022-11-08T20:24:53.923Z,116.10
2022-11-08T20:29:52.932Z,111.72
2022-11-08T20:32:21.937Z,120.20
2022-11-08T20:34:55.245Z,113.28
2022-11-08T20:37:27.134Z,115.40
2022-11-08T20:39:59.470Z,117.97
2022-11-08T20:42:28.425Z,122.57
2022-11-08T20:45:01.886Z,130.63
2022-11-08T20:47:31.557Z,106.47
2022-11-08T20:50:05.386Z,117.13
2022-11-08T20:52:34.604Z,103.47
2022-11-08T20:55:02.962Z,107.50
2022-11-08T20:57:31.590Z,107.78
2022-11-08T21:00:13.104Z,101.18
2022-11-08T21:02:42.941Z,96.10
2022-11-08T21:05:20.873Z,93.00
2022-11-08T21:10:43.216Z,107.85
2022-11-08T21:13:12.245Z,96.72
2022-11-08T21:15:44.237Z,96.80
2022-11-08T21:18:12.924Z,100.22
2022-11-08T21:20:43.135Z,95.57
2022-11-08T21:23:12.169Z,97.47
2022-11-08T21:25:40.799Z,92.50
2022-11-08T21:28:10.005Z,105.72
2022-11-08T21:30:39.484Z,97.20
2022-11-08T21:33:09.749Z,94.35
2022-11-08T21:35:39.098Z,89.20
2022-11-08T21:38:10.858Z,98.80
2022-11-08T21:40:41.488Z,86.60
2022-11-08T21:43:11.084Z,87.10
2022-11-08T21:45:41.286Z,87.43
2022-11-08T21:48:15.258Z,90.00
2022-11-08T21:50:49.909Z,91.78
2022-11-08T21:53:21.090Z,95.40
2022-11-08T21:55:49.740Z,88.40
2022-11-08T21:58:19.773Z,88.85
2022-11-08T22:00:55.024Z,91.13
2022-11-08T22:03:25.394Z,88.70
2022-11-08T22:06:01.786Z,89.50
2022-11-08T22:08:33.349Z,90.03
2022-11-08T22:11:02.915Z,94.10
2022-11-08T22:13:32.968Z,91.05
2022-11-08T22:16:10.924Z,97.72
2022-11-08T22:21:41.497Z,83.55
2022-11-08T22:24:18.276Z,94.32
2022-11-08T22:26:48.712Z,91.15
2022-11-08T22:29:17.992Z,100.75
2022-11-08T22:31:47.711Z,97.53
2022-11-08T22:34:19.613Z,86.90
2022-11-08T22:36:54.318Z,95.50
2022-11-08T22:39:28.781Z,87.45
2022-11-08T22:41:57.307Z,96.70
2022-11-08T22:44:27.426Z,95.75
2022-11-08T22:46:59.560Z,98.22
2022-11-08T22:51:57.644Z,95.18
2022-11-08T22:54:29.461Z,95.93
2022-11-08T22:56:57.978Z,87.53
2022-11-08T22:59:27.042Z,86.60
2022-11-08T23:01:55.377Z,90.07
2022-11-08T23:04:26.378Z,87.13
2022-11-08T23:06:57.788Z,93.23
2022-11-08T23:09:28.943Z,95.35
2022-11-08T23:12:15.492Z,90.07
2022-11-08T23:15:02.297Z,87.85
2022-11-08T23:17:36.013Z,86.65
2022-11-08T23:20:23.593Z,84.13
2022-11-08T23:23:10.328Z,88.28
2022-11-08T23:25:43.059Z,85.55
2022-11-08T23:28:30.850Z,82.45
2022-11-08T23:31:22.113Z,82.05
2022-11-08T23:33:53.576Z,86.05
2022-11-08T23:36:30.551Z,80.43
2022-11-08T23:39:06.607Z,83.53
2022-11-08T23:41:55.466Z,78.00
2022-11-08T23:44:27.746Z,86.40
2022-11-08T23:46:59.493Z,75.05
2022-11-08T23:49:28.569Z,78.13
2022-11-08T23:52:02.105Z,75.15
2022-11-08T23:54:31.281Z,83.50
2022-11-08T23:57:01.931Z,79.65
2022-11-08T23:59:31.381Z,70.95
